地図

経路データ

SID SEASON NUMBER BASIN SUBBASIN NAME ISO_TIME NATURE LAT LON WMO_WIND WMO_PRES WMO_AGENCY TRACK_TYPE DIST2LAND LANDFALL IFLAG USA_AGENCY USA_ATCF_ID USA_LAT USA_LON USA_RECORD USA_STATUS USA_WIND USA_PRES USA_SSHS USA_R34_NE USA_R34_SE USA_R34_SW USA_R34_NW USA_R50_NE USA_R50_SE USA_R50_SW USA_R50_NW USA_R64_NE USA_R64_SE USA_R64_SW USA_R64_NW USA_POCI USA_ROCI USA_RMW USA_EYE TOKYO_LAT TOKYO_LON TOKYO_GRADE TOKYO_WIND TOKYO_PRES TOKYO_R50_DIR TOKYO_R50_LONG TOKYO_R50_SHORT TOKYO_R30_DIR TOKYO_R30_LONG TOKYO_R30_SHORT TOKYO_LAND CMA_LAT CMA_LON CMA_CAT CMA_WIND CMA_PRES HKO_LAT HKO_LON HKO_CAT HKO_WIND HKO_PRES NEWDELHI_LAT NEWDELHI_LON NEWDELHI_GRADE NEWDELHI_WIND NEWDELHI_PRES NEWDELHI_CI NEWDELHI_DP NEWDELHI_POCI REUNION_LAT REUNION_LON REUNION_TYPE REUNION_WIND REUNION_PRES REUNION_TNUM REUNION_CI REUNION_RMW REUNION_R34_NE REUNION_R34_SE REUNION_R34_SW REUNION_R34_NW REUNION_R50_NE REUNION_R50_SE REUNION_R50_SW REUNION_R50_NW REUNION_R64_NE REUNION_R64_SE REUNION_R64_SW REUNION_R64_NW BOM_LAT BOM_LON BOM_TYPE BOM_WIND BOM_PRES BOM_TNUM BOM_CI BOM_RMW BOM_R34_NE BOM_R34_SE BOM_R34_SW BOM_R34_NW BOM_R50_NE BOM_R50_SE BOM_R50_SW BOM_R50_NW BOM_R64_NE BOM_R64_SE BOM_R64_SW BOM_R64_NW BOM_ROCI BOM_POCI BOM_EYE BOM_POS_METHOD BOM_PRES_METHOD NADI_LAT NADI_LON NADI_CAT NADI_WIND NADI_PRES WELLINGTON_LAT WELLINGTON_LON WELLINGTON_WIND WELLINGTON_PRES DS824_LAT DS824_LON DS824_STAGE DS824_WIND DS824_PRES TD9636_LAT TD9636_LON TD9636_STAGE TD9636_WIND TD9636_PRES TD9635_LAT TD9635_LON TD9635_WIND TD9635_PRES TD9635_ROCI NEUMANN_LAT NEUMANN_LON NEUMANN_CLASS NEUMANN_WIND NEUMANN_PRES MLC_LAT MLC_LON MLC_CLASS MLC_WIND MLC_PRES USA_GUST BOM_GUST BOM_GUST_PER REUNION_GUST REUNION_GUST_PER USA_SEAHGT USA_SEARAD_NE USA_SEARAD_SE USA_SEARAD_SW USA_SEARAD_NW STORM_SPEED STORM_DIR
1936299N10088 1936 60 NI BB NOT_NAMED 1936-10-25 00:00:00 TS 9.90000 87.5000 main 677 657 _________O____ -1 9.90000 87.5000 TC 30 5 278
1936299N10088 1936 60 NI BB NOT_NAMED 1936-10-25 03:00:00 TS 9.93337 87.2700 main 657 621 _________PO___ -1 9.95005 87.1550 TC 30 9.90000 87.5000 1 6 279
1936299N10088 1936 60 NI BB NOT_NAMED 1936-10-25 06:00:00 TS 9.98520 86.9257 main 621 592 _________OP___ -1 10.0000 86.8000 TC 30 9.96300 87.1144 1 7 279
1936299N10088 1936 60 NI BB NOT_NAMED 1936-10-25 09:00:00 TS 10.0374 86.5669 main 592 567 _________PP___ -1 10.0500 86.4350 TC 30 10.0206 86.7429 1 7 278
1936299N10088 1936 60 NI BB NOT_NAMED 1936-10-25 12:00:00 TS 10.0839 86.2500 main 557 537 _________OP___ -1 10.1000 86.1000 TC 30 10.0679 86.4000 1 6 278
1936299N10088 1936 60 NI BB NOT_NAMED 1936-10-25 15:00:00 TS 10.1250 85.9675 main 537 513 _________PO___ -1 10.1499 85.8350 TC 30 10.1000 86.1000 1 5 278
1936299N10088 1936 60 NI BB NOT_NAMED 1936-10-25 18:00:00 TS 10.1586 85.7247 main 513 493 _________OP___ -1 10.2000 85.6000 TC 30 10.1171 85.8493 1 5 277
1936299N10088 1936 60 NI BB NOT_NAMED 1936-10-25 21:00:00 TS 10.1834 85.5009 main 493 473 _________PP___ -1 10.2274 85.3799 TC 30 10.1395 85.6219 1 5 280
1936299N10088 1936 60 NI BB NOT_NAMED 1936-10-26 00:00:00 TS 10.2461 85.2418 main 463 444 _________OP___ -1 10.3000 85.1000 TC 30 10.1921 85.3836 1 6 288
1936299N10088 1936 60 NI BB NOT_NAMED 1936-10-26 03:00:00 TS 10.3813 84.8863 main 444 413 _________PO___ -1 10.4626 84.6725 TC 31 10.3000 85.1000 1 9 294
1936299N10088 1936 60 NI BB NOT_NAMED 1936-10-26 06:00:00 TS 10.5944 84.4486 main 410 386 _________OP___ -1 10.7000 84.2000 TC 32 10.4888 84.6973 1 10 299
1936299N10088 1936 60 NI BB NOT_NAMED 1936-10-26 09:00:00 TS 10.8627 84.0140 main 393 366 _________PP___ -1 10.9925 83.7775 TC 33 10.7330 84.2505 1 10 304
1936299N10088 1936 60 NI BB NOT_NAMED 1936-10-26 12:00:00 TS 11.1553 83.6017 main 373 353 _________OP___ -1 11.3000 83.4000 TC 34 11.0107 83.8035 1 10 306
1936299N10088 1936 60 NI BB NOT_NAMED 1936-10-26 15:00:00 TS 11.4250 83.2350 main 349 317 _________PO___ -1 11.5500 83.0699 TC 36 11.3000 83.4000 2 8 309
1936299N10088 1936 60 NI BB NOT_NAMED 1936-10-26 18:00:00 TS 11.6797 82.9416 main 307 280 _________OP___ -1 11.8000 82.8000 TC 39 11.5594 83.0832 2 8 315
1936299N10088 1936 60 NI BB NOT_NAMED 1936-10-26 21:00:00 TS 11.9598 82.6973 main 277 252 _________PP___ -1 12.0925 82.5775 TC 42 11.8272 82.8172 2 7 323
1936299N10088 1936 60 NI BB NOT_NAMED 1936-10-27 00:00:00 TS 12.2532 82.4963 main 250 228 _________OP___ -1 12.4000 82.4000 TC 45 12.1064 82.5926 2 7 328
1936299N10088 1936 60 NI BB NOT_NAMED 1936-10-27 03:00:00 TS 12.5462 82.3212 main 228 213 _________PO___ -1 12.6925 82.2424 TC 45 12.4000 82.4000 3 7 331
1936299N10088 1936 60 NI BB NOT_NAMED 1936-10-27 06:00:00 TS 12.8471 82.1625 main 213 185 _________OP___ -1 13.0000 82.1000 TC 45 12.6942 82.2250 3 7 334
1936299N10088 1936 60 NI BB NOT_NAMED 1936-10-27 09:00:00 TS 13.1662 82.0135 main 184 173 _________PP___ -1 13.3275 81.9499 TC 45 13.0048 82.0770 3 7 337
1936299N10088 1936 60 NI BB NOT_NAMED 1936-10-27 12:00:00 TS 13.5190 81.8703 main 173 151 _________OP___ -1 13.7000 81.8000 TC 45 13.3380 81.9406 3 8 340
1936299N10088 1936 60 NI BB NOT_NAMED 1936-10-27 15:00:00 TS 13.9212 81.7287 main 151 147 _________PO___ -1 14.1425 81.6574 TC 41 13.7000 81.8000 3 9 341
1936299N10088 1936 60 NI BB NOT_NAMED 1936-10-27 18:00:00 TS 14.3542 81.5701 main 152 114 _________OP___ -1 14.6000 81.5000 TC 37 14.1084 81.6402 3 9 339
1936299N10088 1936 60 NI BB NOT_NAMED 1936-10-27 21:00:00 TS 14.7787 81.3899 main 114 64 _________PP___ -1 15.0150 81.3075 TC 33 14.5424 81.4724 3 9 337
1936299N10088 1936 60 NI BB NOT_NAMED 1936-10-28 00:00:00 TS 15.1901 81.1967 main 64 15 _________OP___ -1 15.4000 81.1000 TC 30 14.9802 81.2933 3 9 335
1936299N10088 1936 60 NI BB NOT_NAMED 1936-10-28 03:00:00 TS 15.5787 81.0037 main 15 0 _________PO___ -1 15.7575 80.9074 TC 30 15.4000 81.1000 1 9 333
1936299N10088 1936 60 NI BB NOT_NAMED 1936-10-28 06:00:00 TS 15.9419 80.7946 main 0 0 _________OP___ -1 16.1000 80.7000 TC 30 15.7837 80.8893 1 8 330
1936299N10088 1936 60 NI BB NOT_NAMED 1936-10-28 09:00:00 TS 16.3050 80.5612 main 0 0 _________PP___ -1 16.4650 80.4575 TC 30 16.1450 80.6649 1 8 327
1936299N10088 1936 60 NI BB NOT_NAMED 1936-10-28 12:00:00 TS 16.6419 80.3165 main 0 0 _________OP___ -1 16.8000 80.2000 TC 30 16.4837 80.4330 1 8 323
1936299N10088 1936 60 NI BB NOT_NAMED 1936-10-28 15:00:00 TS 16.9287 80.0712 main 0 0 _________PO___ -1 17.0575 79.9424 TC 30 16.8000 80.2000 1 7 320
1936299N10088 1936 60 NI BB NOT_NAMED 1936-10-28 18:00:00 TS 17.1902 79.8313 main 0 0 _________OP___ -1 17.3000 79.7000 TC 30 17.0803 79.9625 1 7 321
1936299N10088 1936 60 NI BB NOT_NAMED 1936-10-28 21:00:00 TS 17.4637 79.6098 main 0 0 _________PP___ -1 17.5850 79.4924 TC 30 17.3425 79.7271 1 7 324
1936299N10088 1936 60 NI BB NOT_NAMED 1936-10-29 00:00:00 TS 17.7542 79.4016 main 0 0 _________OP___ -1 17.9000 79.3000 TC 30 17.6085 79.5032 1 7 327
1936299N10088 1936 60 NI BB NOT_NAMED 1936-10-29 03:00:00 TS 18.0675 79.1925 main 0 0 _________PO___ -1 18.2350 79.0850 TC 30 17.9000 79.3000 1 8 331
1936299N10088 1936 60 NI BB NOT_NAMED 1936-10-29 06:00:00 TS 18.4292 79.0061 main 0 0 _________OP___ -1 18.6000 78.9000 TC 30 18.2584 79.1123 1 8 337
1936299N10088 1936 60 NI BB NOT_NAMED 1936-10-29 09:00:00 TS 18.8250 78.8625 main 0 0 _________PP___ -1 19.0075 78.7774 TC 30 18.6424 78.9476 1 8 343
1936299N10088 1936 60 NI BB NOT_NAMED 1936-10-29 12:00:00 TS 19.2151 78.7546 main 0 0 _________OP___ -1 19.4000 78.7000 TC 30 19.0303 78.8092 1 8 346
1936299N10088 1936 60 NI BB NOT_NAMED 1936-10-29 15:00:00 TS 19.5575 78.6712 main 0 0 _________PO___ -1 19.7150 78.6424 TC 30 19.4000 78.7000 1 7 348
1936299N10088 1936 60 NI BB NOT_NAMED 1936-10-29 18:00:00 TS 19.8486 78.6122 main 0 0 _________OP___ -1 20.0000 78.6000 TC 30 19.7350 78.6214 1 6 350
1936299N10088 1936 60 NI BB NOT_NAMED 1936-10-29 21:00:00 TS 20.1420 78.5614 main 0 0 _________PP___ -1 20.2950 78.5526 TC 30 20.0400 78.5673 1 6 351
1936299N10088 1936 60 NI BB NOT_NAMED 1936-10-30 00:00:00 TS 20.4167 78.5197 main 0 0 _________OP___ -1 20.6000 78.5000 TC 30 20.3250 78.5296 1 5 353
1936299N10088 1936 60 NI BB NOT_NAMED 1936-10-30 03:00:00 NR 20.6000 78.5000 main 0 __________O___ -1 TC 20.6000 78.5000 1 4 0

IBTrACS Databaseについて

本データベースは、米国NOAAが公開する1842年以降の世界の熱帯低気圧のベストトラックデータアーカイブInternational Best Track Archive for Climate Stewardship (IBTrACS)を、ウェブで閲覧しやすい形式に変換したものです。

最終更新日:2021-10-08